Time;durP1;ratioP1;P1;durP2;ratioP2;P2;SDS_P1;SDS_P2;PMS_P1;PMS_P2;Temp;Humidity;BMP_temperature;BMP_pressure;BME280_temperature;BME280_humidity;BME280_pressure;Samples;Min_cycle;Max_cycle;Signal;HPM_P1;HPM_P2
2022/06/15 00:00:03;;;;;;;6.75;4.40;;;;;;;14.79;52.60;101295.97;680341;29;1926;-75
2022/06/15 00:00:25;;;;;;;6.95;4.10;;;;;;;14.74;52.81;101288.00;682272;29;939;-76
2022/06/15 00:00:54;;;;;;;6.03;4.32;;;;;;;14.73;52.93;101291.50;682165;29;1360;-75
2022/06/15 00:01:24;;;;;;;5.00;4.50;;;;;;;14.72;53.10;101289.72;682024;29;1297;-75
2022/06/15 00:01:45;;;;;;;6.40;4.63;;;;;;;14.67;53.04;101283.50;684412;28;1212;-75
2022/06/15 00:02:06;;;;;;;7.00;4.68;;;;;;;14.70;52.92;101285.31;683380;28;2275;-75
2022/06/15 00:02:26;;;;;;;5.78;4.57;;;;;;;14.65;53.13;101282.59;685021;28;1153;-76
2022/06/15 00:02:47;;;;;;;7.87;4.87;;;;;;;14.64;53.04;101275.56;684408;28;1230;-75
2022/06/15 00:03:09;;;;;;;8.50;4.90;;;;;;;14.65;53.01;101287.84;683931;28;1927;-75
2022/06/15 00:03:32;;;;;;;10.60;4.88;;;;;;;14.68;53.20;101294.91;679498;29;1205;-75
2022/06/15 00:03:54;;;;;;;11.20;4.93;;;;;;;14.61;53.07;101289.53;679836;29;808;-75
2022/06/15 00:04:15;;;;;;;10.98;5.00;;;;;;;14.60;53.25;101281.59;682141;29;1099;-75
2022/06/15 00:04:36;;;;;;;7.20;5.00;;;;;;;14.60;53.26;101289.47;680298;29;1018;-75
2022/06/15 00:04:57;;;;;;;7.47;4.88;;;;;;;14.59;53.43;101287.72;686352;28;1549;-76
2022/06/15 00:05:18;;;;;;;9.07;4.97;;;;;;;14.61;53.26;101288.63;684661;28;1747;-75
2022/06/15 00:05:39;;;;;;;8.43;4.47;;;;;;;14.59;53.03;101285.09;684845;28;1177;-75
2022/06/15 00:06:18;;;;;;;6.07;4.22;;;;;;;14.59;53.29;101291.25;683478;28;2054;-75
2022/06/15 00:06:41;;;;;;;6.18;4.45;;;;;;;14.61;53.40;101301.75;683328;28;1073;-75
2022/06/15 00:07:02;;;;;;;7.40;4.50;;;;;;;14.56;53.15;101295.53;684790;28;1613;-75
2022/06/15 00:07:23;;;;;;;6.68;4.50;;;;;;;14.55;53.48;101292.03;687710;28;1163;-75
2022/06/15 00:07:44;;;;;;;6.43;4.60;;;;;;;14.52;53.62;101298.09;683676;28;1678;-75
2022/06/15 00:08:05;;;;;;;7.57;4.60;;;;;;;14.53;53.39;101294.59;679282;29;1644;-75
2022/06/15 00:08:25;;;;;;;7.85;4.60;;;;;;;14.56;53.46;101303.44;684958;28;883;-75
2022/06/15 00:08:51;;;;;;;6.53;4.40;;;;;;;14.53;53.68;101299.84;684854;28;1567;-75
2022/06/15 00:09:12;;;;;;;6.00;4.30;;;;;;;14.48;53.68;101287.50;681548;28;1526;-76
2022/06/15 00:09:33;;;;;;;5.65;4.20;;;;;;;14.47;53.55;101289.25;681751;28;1130;-75
2022/06/15 00:09:53;;;;;;;6.83;4.50;;;;;;;14.45;53.39;101293.56;681879;29;1380;-75
2022/06/15 00:10:15;;;;;;;7.38;4.70;;;;;;;14.41;53.70;101280.34;684551;28;2045;-75
2022/06/15 00:10:36;;;;;;;8.97;4.97;;;;;;;14.46;53.93;101287.50;684998;28;1242;-75
2022/06/15 00:10:56;;;;;;;8.15;4.72;;;;;;;14.46;54.05;101281.34;681942;28;1659;-75
2022/06/15 00:11:34;;;;;;;6.97;4.75;;;;;;;14.44;53.89;101286.53;686262;28;1651;-75
2022/06/15 00:11:55;;;;;;;5.70;4.95;;;;;;;14.43;54.04;101287.41;684871;28;1985;-76
2022/06/15 00:12:16;;;;;;;6.30;4.80;;;;;;;14.44;54.09;101294.44;684506;28;1214;-75
2022/06/15 00:12:37;;;;;;;7.10;4.50;;;;;;;14.45;53.92;101290.94;685914;28;1089;-75
2022/06/15 00:12:58;;;;;;;6.80;4.40;;;;;;;14.41;53.95;101282.97;684861;28;2005;-75
2022/06/15 00:13:21;;;;;;;6.43;4.45;;;;;;;14.44;53.95;101286.53;682399;29;1256;-75
2022/06/15 00:13:41;;;;;;;7.25;4.60;;;;;;;14.44;54.05;101286.53;681058;28;1316;-75
2022/06/15 00:14:15;;;;;;;8.03;4.80;;;;;;;14.46;54.20;101287.50;681969;29;1435;-75
2022/06/15 00:14:36;;;;;;;7.80;4.80;;;;;;;14.45;54.11;101283.06;681449;29;1046;-75
2022/06/15 00:14:57;;;;;;;7.60;4.90;;;;;;;14.49;54.14;101290.16;682117;29;2177;-75
2022/06/15 00:15:18;;;;;;;7.90;5.13;;;;;;;14.46;53.90;101281.34;682329;29;1073;-75
2022/06/15 00:15:38;;;;;;;8.75;5.55;;;;;;;14.44;53.88;101272.56;683412;28;1240;-75
2022/06/15 00:15:59;;;;;;;7.88;5.40;;;;;;;14.42;54.04;101275.13;681953;29;1585;-75
2022/06/15 00:16:21;;;;;;;8.10;5.38;;;;;;;14.43;54.05;101273.41;682406;28;1364;-75
2022/06/15 00:16:42;;;;;;;6.80;4.95;;;;;;;14.42;53.88;101269.88;681092;29;1252;-75
2022/06/15 00:17:03;;;;;;;7.05;4.88;;;;;;;14.46;53.80;101283.97;682040;29;1542;-75
2022/06/15 00:17:24;;;;;;;6.47;5.00;;;;;;;14.41;53.86;101267.22;682109;29;1128;-75
2022/06/15 00:17:44;;;;;;;6.90;5.00;;;;;;;14.48;53.91;101280.53;680607;29;1175;-75
2022/06/15 00:18:05;;;;;;;7.05;5.18;;;;;;;14.47;54.24;101284.00;682094;29;1752;-75
2022/06/15 00:18:28;;;;;;;7.60;5.30;;;;;;;14.41;53.99;101268.13;681478;29;961;-75
2022/06/15 00:18:49;;;;;;;7.97;5.50;;;;;;;14.41;53.90;101273.38;684326;28;1168;-75
2022/06/15 00:19:10;;;;;;;8.30;5.20;;;;;;;14.38;53.76;101262.81;682628;28;1464;-75
2022/06/15 00:19:31;;;;;;;7.72;5.20;;;;;;;14.42;53.93;101272.50;681852;28;1133;-75
2022/06/15 00:19:52;;;;;;;7.20;5.00;;;;;;;14.38;53.77;101268.06;684922;28;1341;-75
2022/06/15 00:20:12;;;;;;;8.43;5.20;;;;;;;14.37;53.62;101269.78;680868;28;1594;-75
2022/06/15 00:20:33;;;;;;;8.23;4.90;;;;;;;14.35;53.75;101270.63;679135;29;1260;-75
2022/06/15 00:20:58;;;;;;;7.50;4.80;;;;;;;14.36;53.73;101272.38;685212;28;898;-75
2022/06/15 00:21:20;;;;;;;7.15;4.90;;;;;;;14.35;53.69;101268.00;684971;28;1014;-76
2022/06/15 00:21:40;;;;;;;8.00;4.95;;;;;;;14.35;54.42;101273.25;682309;28;1709;-75
2022/06/15 00:22:02;;;;;;;7.65;5.05;;;;;;;14.30;54.13;101264.38;681362;29;1746;-75
2022/06/15 00:22:23;;;;;;;5.47;4.70;;;;;;;14.31;53.83;101272.28;679378;29;1376;-75
2022/06/15 00:22:44;;;;;;;5.07;4.60;;;;;;;14.31;54.19;101266.16;679572;29;1169;-75
2022/06/15 00:23:04;;;;;;;5.17;4.70;;;;;;;14.30;54.00;101267.00;679009;29;1991;-75
2022/06/15 00:23:26;;;;;;;5.60;5.00;;;;;;;14.31;54.13;101276.69;677165;29;1134;-75
2022/06/15 00:23:47;;;;;;;6.65;5.18;;;;;;;14.36;54.46;101277.63;684056;28;1219;-75
2022/06/15 00:24:08;;;;;;;7.05;5.00;;;;;;;14.30;54.46;101272.25;684682;28;1595;-76
2022/06/15 00:24:29;;;;;;;6.25;4.68;;;;;;;14.27;54.46;101266.94;682415;29;1058;-75
2022/06/15 00:24:50;;;;;;;5.18;4.47;;;;;;;14.29;54.33;101268.75;687546;28;1086;-75
2022/06/15 00:25:13;;;;;;;6.15;4.60;;;;;;;14.29;54.48;101270.47;682220;28;1555;-75
2022/06/15 00:25:33;;;;;;;6.60;4.72;;;;;;;14.24;54.27;101260.78;687902;28;1017;-76
2022/06/15 00:25:54;;;;;;;7.13;4.73;;;;;;;14.29;54.45;101268.75;687751;28;1226;-75
2022/06/15 00:26:15;;;;;;;6.53;4.70;;;;;;;14.24;54.41;101266.03;682795;28;1672;-75
2022/06/15 00:26:36;;;;;;;7.25;4.85;;;;;;;14.30;54.28;101272.25;682227;29;1237;-75
2022/06/15 00:26:57;;;;;;;6.70;4.80;;;;;;;14.26;54.80;101271.31;687436;28;1953;-76
2022/06/15 00:27:17;;;;;;;7.32;5.10;;;;;;;14.21;54.37;101265.94;684925;28;1025;-75
2022/06/15 00:27:38;;;;;;;8.27;5.10;;;;;;;14.27;54.47;101274.81;682194;29;1075;-75
2022/06/15 00:27:59;;;;;;;7.97;5.20;;;;;;;14.20;54.61;101266.81;685554;28;1674;-75
2022/06/15 00:28:20;;;;;;;7.60;4.95;;;;;;;14.19;54.77;101267.66;682355;29;1104;-75
2022/06/15 00:28:42;;;;;;;5.60;4.70;;;;;;;14.22;54.72;101273.00;683613;28;1089;-75
2022/06/15 00:29:02;;;;;;;6.72;4.50;;;;;;;14.14;54.75;101258.84;684784;28;1889;-75
2022/06/15 00:29:23;;;;;;;6.55;4.60;;;;;;;14.13;54.63;101267.53;687293;28;1151;-75
2022/06/15 00:29:44;;;;;;;6.22;4.50;;;;;;;14.11;54.90;101258.75;683465;28;1045;-75
2022/06/15 00:30:05;;;;;;;5.50;4.80;;;;;;;14.12;54.92;101265.75;685172;28;1636;-75
2022/06/15 00:30:26;;;;;;;6.28;4.90;;;;;;;14.09;55.08;101260.44;681602;28;1807;-75
2022/06/15 00:30:51;;;;;;;6.50;5.00;;;;;;;14.12;54.70;101273.63;684646;28;1478;-75
2022/06/15 00:31:12;;;;;;;6.40;4.90;;;;;;;14.17;55.06;101274.63;687417;28;1986;-75
2022/06/15 00:31:33;;;;;;;6.10;4.90;;;;;;;14.07;55.08;101260.38;685465;28;1137;-75
2022/06/15 00:31:53;;;;;;;5.95;4.85;;;;;;;14.06;55.09;101260.34;682959;28;773;-75
2022/06/15 00:32:14;;;;;;;6.20;4.93;;;;;;;14.11;55.18;101269.25;682495;29;1911;-75
2022/06/15 00:32:35;;;;;;;6.43;5.00;;;;;;;14.11;55.07;101274.50;680090;29;1221;-75
2022/06/15 00:32:55;;;;;;;6.75;4.90;;;;;;;14.05;55.05;101263.81;680225;29;1546;-75
2022/06/15 00:33:19;;;;;;;7.13;5.17;;;;;;;14.10;55.20;101272.69;679975;29;1659;-75
2022/06/15 00:33:40;;;;;;;7.75;5.15;;;;;;;14.07;55.28;101270.03;684140;28;1500;-75
2022/06/15 00:34:02;;;;;;;8.65;5.38;;;;;;;14.07;55.25;101270.03;685321;28;1501;-75
2022/06/15 00:34:23;;;;;;;8.13;5.25;;;;;;;14.05;55.32;101269.06;685453;28;1120;-75
2022/06/15 00:34:44;;;;;;;8.93;5.37;;;;;;;14.05;55.19;101269.06;685410;28;1069;-75
2022/06/15 00:35:04;;;;;;;8.00;5.20;;;;;;;13.97;55.25;101254.06;685397;28;1663;-75
2022/06/15 00:35:25;;;;;;;7.20;5.13;;;;;;;14.03;54.88;101266.44;682867;29;1219;-75
2022/06/15 00:35:57;;;;;;;6.60;5.10;;;;;;;14.02;55.25;101258.53;682839;29;1061;-75
2022/06/15 00:36:20;;;;;;;9.88;5.97;;;;;;;14.03;55.35;101268.16;682787;29;1153;-75
2022/06/15 00:36:40;;;;;;;9.63;6.00;;;;;;;14.01;55.65;101262.00;680579;29;1701;-75
2022/06/15 00:37:01;;;;;;;10.02;5.95;;;;;;;14.01;55.39;101259.38;681185;29;1663;-75
2022/06/15 00:37:23;;;;;;;8.63;5.53;;;;;;;14.01;55.37;101259.38;682730;28;1748;-75
2022/06/15 00:37:44;;;;;;;7.78;5.50;;;;;;;14.02;55.57;101266.41;684368;28;1156;-75
2022/06/15 00:38:07;;;;;;;7.38;5.40;;;;;;;14.00;55.25;101261.09;681680;29;1357;-75
2022/06/15 00:38:37;;;;;;;8.25;5.75;;;;;;;13.98;55.44;101263.72;679807;29;1257;-75
2022/06/15 00:38:59;;;;;;;9.70;6.00;;;;;;;14.03;55.49;101266.44;679933;29;1555;-75
2022/06/15 00:39:20;;;;;;;7.85;5.80;;;;;;;14.01;55.37;101251.50;680510;28;1796;-75
2022/06/15 00:39:40;;;;;;;8.83;5.83;;;;;;;13.98;55.42;101253.22;681467;29;1150;-75
2022/06/15 00:40:01;;;;;;;8.95;5.90;;;;;;;14.03;55.43;101263.81;686014;28;1172;-75
2022/06/15 00:40:22;;;;;;;8.75;5.63;;;;;;;13.99;55.20;101254.09;685581;28;1051;-75
2022/06/15 00:40:43;;;;;;;8.07;5.40;;;;;;;13.98;55.23;101258.47;684344;28;1183;-75
2022/06/15 00:41:05;;;;;;;7.70;5.40;;;;;;;14.04;55.45;101262.97;687015;28;1861;-75
2022/06/15 00:41:33;;;;;;;8.40;5.60;;;;;;;14.03;55.19;101270.78;685567;28;843;-75
2022/06/15 00:41:54;;;;;;;6.60;5.45;;;;;;;14.00;55.35;101266.34;684464;28;860;-75
2022/06/15 00:42:15;;;;;;;7.03;5.30;;;;;;;13.95;55.56;101255.75;682557;29;1931;-75
2022/06/15 00:42:37;;;;;;;7.45;5.50;;;;;;;13.93;55.34;101257.47;680671;29;1162;-74
2022/06/15 00:42:57;;;;;;;7.22;5.40;;;;;;;13.97;55.58;101263.69;682682;28;1912;-75
2022/06/15 00:43:35;;;;;;;6.15;5.50;;;;;;;13.93;55.64;101260.09;680128;29;1155;-75
2022/06/15 00:43:57;;;;;;;5.82;5.22;;;;;;;13.96;55.58;101267.16;684529;28;1975;-75
2022/06/15 00:44:19;;;;;;;6.05;5.22;;;;;;;13.98;55.71;101268.97;688213;28;1102;-75
2022/06/15 00:44:44;;;;;;;6.60;5.50;;;;;;;13.92;55.85;101263.59;686826;28;1461;-75
2022/06/15 00:45:06;;;;;;;7.22;5.57;;;;;;;13.94;55.83;101267.13;683910;28;1724;-75
2022/06/15 00:45:26;;;;;;;7.72;5.60;;;;;;;13.90;55.65;101265.25;688272;28;1256;-75
2022/06/15 00:45:47;;;;;;;7.38;5.30;;;;;;;13.97;55.72;101269.78;690891;28;1088;-75
2022/06/15 00:46:47;;;;;;;7.87;5.60;;;;;;;13.97;55.77;101275.03;683399;28;1215;-75
2022/06/15 00:47:31;;;;;;;6.53;5.60;;;;;;;13.98;55.82;101268.06;676068;29;1096;-75
2022/06/15 00:47:52;;;;;;;6.05;5.45;;;;;;;13.93;55.91;101265.34;678419;28;1141;-75
2022/06/15 00:48:13;;;;;;;5.82;5.20;;;;;;;13.94;55.95;101267.13;679433;29;1675;-75
2022/06/15 00:48:34;;;;;;;7.65;5.32;;;;;;;13.89;55.58;101258.25;675415;29;1114;-75
2022/06/15 00:49:06;;;;;;;8.23;5.15;;;;;;;13.93;55.73;101264.44;682853;29;1268;-75
2022/06/15 00:49:28;;;;;;;8.70;5.00;;;;;;;13.95;55.84;101268.00;674628;29;3022;-75
2022/06/15 00:50:00;;;;;;;8.13;5.22;;;;;;;13.91;55.76;101261.81;679154;29;1093;-75
2022/06/15 00:50:25;;;;;;;7.13;5.10;;;;;;;13.94;55.96;101266.22;677420;29;1106;-75
2022/06/15 00:50:46;;;;;;;6.93;5.15;;;;;;;13.96;55.92;101264.53;676460;29;1098;-75
2022/06/15 00:51:07;;;;;;;8.35;5.28;;;;;;;14.00;55.94;101270.72;677595;29;1137;-75
2022/06/15 00:51:28;;;;;;;8.15;5.38;;;;;;;13.95;55.87;101268.00;680261;29;937;-75
2022/06/15 00:51:55;;;;;;;7.35;5.22;;;;;;;13.95;55.78;101257.53;681491;29;1344;-75
2022/06/15 00:52:28;;;;;;;7.53;5.65;;;;;;;13.95;56.02;101262.75;679784;29;1357;-75
2022/06/15 00:52:56;;;;;;;9.48;5.97;;;;;;;13.93;55.72;101253.94;679551;29;1031;-75
2022/06/15 00:53:17;;;;;;;9.25;5.70;;;;;;;13.92;55.57;101253.09;682293;29;1855;-75
2022/06/15 00:53:38;;;;;;;7.72;5.35;;;;;;;13.96;55.70;101265.41;686242;28;1104;-75
2022/06/15 00:53:59;;;;;;;8.05;5.50;;;;;;;13.94;55.78;101259.25;685387;28;2233;-75
2022/06/15 00:54:22;;;;;;;6.88;5.40;;;;;;;13.99;55.81;101261.97;683669;28;1221;-75
2022/06/15 00:54:47;;;;;;;6.63;5.60;;;;;;;13.94;55.91;101256.63;682631;29;1915;-75
2022/06/15 00:55:16;;;;;;;6.70;5.43;;;;;;;13.95;55.77;101250.50;679985;29;1132;-75
2022/06/15 00:55:37;;;;;;;8.07;5.70;;;;;;;13.93;55.55;101249.59;685396;28;1208;-75
2022/06/15 00:55:57;;;;;;;7.75;5.32;;;;;;;14.00;55.62;101260.25;682828;28;1403;-75
2022/06/15 00:56:20;;;;;;;8.90;5.30;;;;;;;13.94;55.50;101256.63;688096;28;1699;-75
2022/06/15 00:56:41;;;;;;;9.07;5.30;;;;;;;13.93;55.63;101251.31;686651;28;1053;-75
2022/06/15 00:57:02;;;;;;;10.90;5.38;;;;;;;14.01;55.49;101257.63;682721;29;1810;-75
2022/06/15 00:57:25;;;;;;;8.95;5.10;;;;;;;14.02;55.72;101258.53;682885;29;851;-75
2022/06/15 00:57:46;;;;;;;9.07;5.10;;;;;;;13.96;55.90;101248.78;685546;28;1872;-75
2022/06/15 00:58:09;;;;;;;8.25;5.95;;;;;;;13.98;55.93;101249.69;681089;28;1598;-75
2022/06/15 00:58:31;;;;;;;9.55;6.20;;;;;;;13.98;55.60;101250.59;685629;28;1024;-75
2022/06/15 00:58:56;;;;;;;8.82;5.47;;;;;;;13.96;55.72;101243.53;682899;29;867;-75
2022/06/15 00:59:30;;;;;;;8.25;5.00;;;;;;;14.00;55.52;101255.00;685199;28;1536;-75
2022/06/15 00:59:56;;;;;;;10.88;5.72;;;;;;;14.01;55.53;101257.63;683049;28;1926;-75
2022/06/15 01:00:18;;;;;;;9.73;5.65;;;;;;;13.95;55.63;101247.03;679899;29;2408;-75
2022/06/15 01:00:39;;;;;;;9.05;5.47;;;;;;;13.94;55.57;101251.38;683754;28;1077;-75
2022/06/15 01:01:00;;;;;;;8.02;5.60;;;;;;;13.93;55.63;101249.59;679900;28;2012;-75
2022/06/15 01:01:21;;;;;;;10.13;5.68;;;;;;;13.89;55.81;101250.38;685278;28;1360;-75
2022/06/15 01:01:42;;;;;;;10.15;5.72;;;;;;;13.88;55.36;101251.22;685205;28;1246;-75
2022/06/15 01:02:03;;;;;;;9.93;5.60;;;;;;;13.86;55.82;101247.69;682755;28;1251;-75
2022/06/15 01:02:26;;;;;;;8.13;5.60;;;;;;;13.87;55.78;101244.22;683519;28;1215;-75
2022/06/15 01:02:48;;;;;;;7.15;5.35;;;;;;;13.83;55.86;101239.78;685314;28;1128;-75
2022/06/15 01:03:12;;;;;;;8.13;5.38;;;;;;;13.83;55.73;101247.63;687712;28;1914;-75
2022/06/15 01:03:33;;;;;;;9.20;5.47;;;;;;;13.90;55.68;101256.53;687384;28;1321;-75
2022/06/15 01:03:58;;;;;;;9.25;5.60;;;;;;;13.84;55.97;101249.41;680291;29;1936;-75
2022/06/15 01:04:20;;;;;;;8.60;5.70;;;;;;;13.83;55.99;101245.00;682757;29;982;-75
2022/06/15 01:05:10;;;;;;;10.90;5.80;;;;;;;13.88;55.98;101260.84;681418;29;1345;-75
2022/06/15 01:05:43;;;;;;;8.00;5.07;;;;;;;13.85;55.94;101252.03;679471;29;982;-75
2022/06/15 01:06:12;;;;;;;7.70;5.10;;;;;;;13.85;55.91;101256.41;682588;29;1094;-75
2022/06/15 01:07:05;;;;;;;7.88;5.28;;;;;;;13.83;56.38;101250.25;682793;28;1080;-75
2022/06/15 01:07:55;;;;;;;8.68;5.30;;;;;;;13.81;56.44;101254.56;686291;28;1445;-75
2022/06/15 01:08:53;;;;;;;6.82;5.57;;;;;;;13.78;56.13;101255.38;692251;28;1564;-75
2022/06/15 01:09:27;;;;;;;7.93;5.30;;;;;;;13.70;56.45;101242.09;679577;29;1480;-75
2022/06/15 01:09:59;;;;;;;8.20;5.50;;;;;;;13.70;56.30;101243.81;680464;29;1388;-75
2022/06/15 01:10:34;;;;;;;7.07;5.43;;;;;;;13.73;56.28;101256.13;677420;29;975;-75
2022/06/15 01:11:04;;;;;;;6.30;5.10;;;;;;;13.76;56.30;101259.72;680929;28;1242;-75
2022/06/15 01:11:40;;;;;;;6.25;5.07;;;;;;;13.68;56.31;101249.06;685505;28;831;-75
2022/06/15 01:12:36;;;;;;;6.63;5.05;;;;;;;13.68;56.56;101259.56;687761;28;1819;-75
2022/06/15 01:13:17;;;;;;;7.00;5.00;;;;;;;13.70;56.59;101262.19;690515;28;1872;-75
2022/06/15 01:13:56;;;;;;;7.00;5.10;;;;;;;13.70;56.60;101255.22;688030;28;1095;-75
2022/06/15 01:15:00;;;;;;;7.03;5.20;;;;;;;13.63;56.77;101250.69;685010;28;1966;-75
2022/06/15 01:15:51;;;;;;;8.52;5.72;;;;;;;13.66;56.50;101261.22;679828;29;1460;-75
2022/06/15 01:16:22;;;;;;;5.93;5.30;;;;;;;13.67;56.70;101260.41;684204;28;1904;-75
2022/06/15 01:16:52;;;;;;;5.82;5.07;;;;;;;13.60;56.49;101248.00;682960;28;1992;-75
2022/06/15 01:17:34;;;;;;;7.63;4.90;;;;;;;13.65;56.57;101259.47;682621;29;1611;-75
2022/06/15 01:18:12;;;;;;;11.05;5.28;;;;;;;13.65;56.71;101259.47;682944;29;883;-75
2022/06/15 01:18:48;;;;;;;12.18;5.30;;;;;;;13.66;56.58;101261.22;683342;28;1041;-75
2022/06/15 01:19:18;;;;;;;8.90;5.10;;;;;;;13.65;56.80;101251.59;684470;28;1198;-74
2022/06/15 01:20:13;;;;;;;5.88;4.95;;;;;;;13.66;57.03;101265.59;682642;28;1022;-75
2022/06/15 01:20:34;;;;;;;9.32;5.70;;;;;;;13.65;56.65;101259.47;681737;29;1283;-75
2022/06/15 01:21:05;;;;;;;8.00;5.40;;;;;;;13.59;56.56;101246.22;680039;29;1634;-75
2022/06/15 01:21:45;;;;;;;6.40;5.18;;;;;;;13.59;56.78;101245.34;678960;29;803;-75
2022/06/15 01:22:14;;;;;;;6.95;5.55;;;;;;;13.67;56.58;101259.50;682471;28;1618;-75
2022/06/15 01:23:17;;;;;;;6.00;5.40;;;;;;;13.66;56.79;101261.22;685860;28;1061;-75
2022/06/15 01:24:14;;;;;;;5.70;5.10;;;;;;;13.62;56.89;101254.16;686259;28;1308;-75
2022/06/15 01:25:13;;;;;;;11.32;4.95;;;;;;;13.66;57.08;101266.47;687241;28;1123;-75
2022/06/15 01:25:38;;;;;;;8.40;5.82;;;;;;;13.66;56.99;101261.22;682094;29;1139;-75
2022/06/15 01:26:05;;;;;;;10.15;5.75;;;;;;;13.66;56.93;101261.22;680329;29;1694;-75
2022/06/15 01:26:50;;;;;;;9.90;5.72;;;;;;;13.67;57.10;101263.03;676358;29;1236;-75
2022/06/15 01:27:16;;;;;;;8.00;5.70;;;;;;;13.68;57.04;101259.56;677260;29;2035;-75
2022/06/15 01:28:14;;;;;;;8.50;5.70;;;;;;;13.68;57.12;101259.56;683441;28;1069;-75
2022/06/15 01:28:52;;;;;;;7.18;5.00;;;;;;;13.68;56.96;101251.69;685666;28;1140;-75
2022/06/15 01:29:21;;;;;;;7.90;5.30;;;;;;;13.69;57.07;101248.22;688745;28;1009;-75
2022/06/15 01:30:03;;;;;;;8.40;5.30;;;;;;;13.68;56.84;101256.03;686039;28;1991;-75
2022/06/15 01:30:33;;;;;;;8.85;5.40;;;;;;;13.60;56.65;101242.75;685336;28;1720;-75
2022/06/15 01:30:54;;;;;;;7.88;5.60;;;;;;;13.67;56.71;101255.16;685456;28;1371;-75
2022/06/15 01:31:32;;;;;;;7.45;5.53;;;;;;;13.66;56.86;101255.97;682550;29;1237;-75
2022/06/15 01:32:03;;;;;;;9.52;5.80;;;;;;;13.62;56.81;101245.38;685860;28;1363;-75
2022/06/15 01:32:43;;;;;;;7.47;5.88;;;;;;;13.57;56.98;101247.91;685160;28;1037;-75
2022/06/15 01:33:22;;;;;;;7.18;5.30;;;;;;;13.57;56.84;101251.44;682603;28;1822;-75
2022/06/15 01:34:02;;;;;;;6.45;5.00;;;;;;;13.57;56.98;101251.44;686504;28;1086;-74
2022/06/15 01:34:34;;;;;;;7.25;5.15;;;;;;;13.54;56.97;101246.09;684587;28;1744;-75
2022/06/15 01:35:07;;;;;;;8.10;5.90;;;;;;;13.59;56.96;101254.09;684056;28;887;-75
2022/06/15 01:35:45;;;;;;;7.28;5.78;;;;;;;13.49;57.05;101244.22;682355;28;1769;-75
2022/06/15 01:36:27;;;;;;;9.18;5.50;;;;;;;13.58;56.97;101257.53;678364;29;1523;-75
2022/06/15 01:37:13;;;;;;;7.70;5.13;;;;;;;13.58;57.02;101249.69;680006;29;1362;-75
2022/06/15 01:37:41;;;;;;;7.88;5.30;;;;;;;13.52;57.00;101241.69;682850;28;1246;-75
2022/06/15 01:38:20;;;;;;;8.13;5.68;;;;;;;13.56;57.21;101254.00;684270;28;1743;-75
2022/06/15 01:38:53;;;;;;;7.00;5.60;;;;;;;13.50;57.29;101238.13;686073;28;1684;-75
2022/06/15 01:39:40;;;;;;;7.80;5.55;;;;;;;13.50;57.08;101232.88;684270;28;1785;-74
2022/06/15 01:40:10;;;;;;;7.43;5.60;;;;;;;13.48;57.26;101240.72;685268;28;2034;-75
2022/06/15 01:40:30;;;;;;;7.25;5.45;;;;;;;13.55;57.13;101252.25;690290;28;1099;-75
2022/06/15 01:41:09;;;;;;;7.43;5.30;;;;;;;13.54;57.17;101245.22;687521;28;1234;-75
2022/06/15 01:41:34;;;;;;;7.35;5.30;;;;;;;13.49;56.91;101241.59;684242;28;1807;-74
2022/06/15 01:42:03;;;;;;;8.55;5.90;;;;;;;13.46;57.46;101238.91;680533;29;1269;-75
2022/06/15 01:42:36;;;;;;;8.13;5.90;;;;;;;13.45;57.08;101235.41;679588;29;896;-75
2022/06/15 01:43:05;;;;;;;6.75;5.40;;;;;;;13.44;57.14;101236.25;679861;29;1911;-75
2022/06/15 01:43:30;;;;;;;7.15;5.50;;;;;;;13.45;57.21;101234.53;681895;29;1203;-75
2022/06/15 01:43:57;;;;;;;7.40;5.60;;;;;;;13.41;57.34;101244.94;688018;28;1069;-75
2022/06/15 01:44:33;;;;;;;8.68;5.95;;;;;;;13.43;57.35;101247.59;682628;28;1321;-75
2022/06/15 01:44:58;;;;;;;6.97;5.80;;;;;;;13.39;57.24;101240.53;685251;28;1752;-75
2022/06/15 01:45:31;;;;;;;6.53;5.82;;;;;;;13.35;57.49;101239.56;685280;28;1131;-75
2022/06/15 01:45:53;;;;;;;8.38;6.50;;;;;;;13.41;57.26;101250.16;680128;29;908;-75
2022/06/15 01:46:14;;;;;;;8.60;6.28;;;;;;;13.36;57.44;101246.56;677261;29;1650;-75
2022/06/15 01:46:39;;;;;;;8.18;6.13;;;;;;;13.34;57.55;101245.63;678161;29;1247;-75
2022/06/15 01:47:10;;;;;;;6.72;5.80;;;;;;;13.36;57.50;101238.72;684300;28;1629;-75
2022/06/15 01:47:34;;;;;;;9.07;6.00;;;;;;;13.38;57.63;101243.97;685285;28;1503;-74
2022/06/15 01:47:59;;;;;;;10.57;6.22;;;;;;;13.37;57.53;101242.19;684752;28;1533;-75
2022/06/15 01:48:22;;;;;;;9.93;6.13;;;;;;;13.34;57.49;101231.66;683158;28;1381;-75
2022/06/15 01:48:46;;;;;;;9.52;6.00;;;;;;;13.34;57.46;101237.75;686758;28;1885;-75
2022/06/15 01:49:15;;;;;;;7.85;5.50;;;;;;;13.34;57.88;101240.38;688027;28;1150;-74
2022/06/15 01:49:45;;;;;;;7.50;5.25;;;;;;;13.34;57.61;101237.75;678069;29;1261;-75
2022/06/15 01:50:23;;;;;;;8.30;5.30;;;;;;;13.37;57.81;101252.69;679419;29;1301;-75
2022/06/15 01:50:54;;;;;;;7.32;5.63;;;;;;;13.37;57.59;101239.56;685936;28;1056;-75
2022/06/15 01:51:21;;;;;;;9.45;6.18;;;;;;;13.39;57.87;101245.75;687824;28;1236;-75
2022/06/15 01:51:43;;;;;;;8.80;5.65;;;;;;;13.37;57.87;101240.47;688436;28;1173;-75
2022/06/15 01:52:07;;;;;;;8.07;5.40;;;;;;;13.41;58.04;101247.53;681461;29;1093;-75
2022/06/15 01:52:38;;;;;;;7.10;5.80;;;;;;;13.33;57.82;101236.00;682369;29;1761;-75
2022/06/15 01:53:05;;;;;;;7.00;5.35;;;;;;;13.37;57.48;101244.81;680086;29;890;-75
2022/06/15 01:53:34;;;;;;;6.53;5.40;;;;;;;13.39;57.74;101246.63;683975;28;1134;-75
2022/06/15 01:54:01;;;;;;;6.35;5.75;;;;;;;13.37;57.46;101240.47;682728;29;913;-75
2022/06/15 01:54:30;;;;;;;7.45;6.00;;;;;;;13.32;57.57;101236.84;682336;29;2029;-75
2022/06/15 01:55:00;;;;;;;7.95;5.72;;;;;;;13.32;57.75;101234.22;682713;29;1131;-75
2022/06/15 01:55:25;;;;;;;7.05;5.65;;;;;;;13.39;57.51;101249.25;682655;29;1023;-75
2022/06/15 01:55:55;;;;;;;6.55;5.45;;;;;;;13.34;57.87;101235.13;682619;29;1332;-75
2022/06/15 01:56:35;;;;;;;6.05;5.43;;;;;;;13.39;57.87;101251.88;685028;28;1253;-75
2022/06/15 01:56:58;;;;;;;7.68;5.40;;;;;;;13.30;57.79;101239.41;688003;28;953;-75
2022/06/15 01:57:21;;;;;;;7.68;5.40;;;;;;;13.38;57.86;101255.34;682386;28;1671;-75
2022/06/15 01:57:47;;;;;;;7.35;5.50;;;;;;;13.30;57.70;101238.56;685222;28;1169;-75
2022/06/15 01:58:16;;;;;;;8.40;5.75;;;;;;;13.29;57.73;101239.41;687566;28;1549;-75
2022/06/15 01:58:41;;;;;;;8.18;5.70;;;;;;;13.30;57.76;101235.94;685030;28;1416;-75
2022/06/15 01:59:13;;;;;;;7.43;5.55;;;;;;;13.37;57.61;101252.69;682096;29;1578;-74
2022/06/15 01:59:43;;;;;;;5.88;5.18;;;;;;;13.33;57.77;101249.09;678794;29;1780;-75
2022/06/15 02:00:10;;;;;;;5.68;4.90;;;;;;;13.31;58.01;101248.19;682460;28;1609;-75
2022/06/15 02:00:36;;;;;;;7.00;5.20;;;;;;;13.28;57.66;101238.50;682512;29;1182;-75
2022/06/15 02:01:15;;;;;;;6.72;5.30;;;;;;;13.29;57.82;101244.66;682740;29;1401;-75
2022/06/15 02:02:03;;;;;;;6.15;5.35;;;;;;;13.34;58.02;101250.00;685874;28;1045;-75
2022/06/15 02:02:27;;;;;;;7.85;6.10;;;;;;;13.32;57.78;101255.19;688084;28;1053;-75
2022/06/15 02:03:27;;;;;;;7.70;5.95;;;;;;;13.32;57.62;101254.31;685237;28;1143;-75
2022/06/15 02:04:13;;;;;;;6.90;5.90;;;;;;;13.31;57.89;101258.66;685088;28;1111;-75
2022/06/15 02:04:45;;;;;;;6.82;5.30;;;;;;;13.30;58.07;101251.66;683321;28;1367;-75
2022/06/15 02:05:32;;;;;;;8.45;5.47;;;;;;;13.23;57.83;101245.41;679107;29;1935;-74
2022/06/15 02:06:09;;;;;;;7.90;5.20;;;;;;;13.23;58.16;101242.78;682599;29;918;-75
2022/06/15 02:06:54;;;;;;;8.23;5.57;;;;;;;13.23;58.26;101242.78;680319;28;1151;-75
2022/06/15 02:07:43;;;;;;;11.20;6.13;;;;;;;13.28;58.15;101249.00;682970;28;1743;-74
2022/06/15 02:08:09;;;;;;;7.50;5.50;;;;;;;13.27;58.18;101247.22;682840;28;1212;-75
2022/06/15 02:08:38;;;;;;;6.95;5.40;;;;;;;13.21;58.10;101238.34;686223;28;1808;-75
2022/06/15 02:09:23;;;;;;;6.28;5.32;;;;;;;13.25;58.03;101248.03;682700;29;937;-74
2022/06/15 02:10:01;;;;;;;7.72;5.43;;;;;;;13.24;58.14;101247.16;683595;28;1141;-75
2022/06/15 02:10:37;;;;;;;8.60;6.15;;;;;;;13.17;58.31;101234.75;677225;29;1032;-75
2022/06/15 02:11:11;;;;;;;8.23;6.20;;;;;;;13.22;58.33;101243.59;677619;29;909;-75
2022/06/15 02:11:37;;;;;;;7.70;5.40;;;;;;;13.20;58.40;101239.19;679429;28;1077;-75